createdAt,value
2019-04-06T00:01:34.629Z,9.90
2019-04-06T00:04:02.198Z,10.47
2019-04-06T00:06:29.588Z,10.47
2019-04-06T00:08:56.973Z,9.40
2019-04-06T00:11:24.368Z,10.40
2019-04-06T00:13:52.715Z,9.73
2019-04-06T00:16:20.464Z,10.33
2019-04-06T00:18:47.883Z,9.60
2019-04-06T00:21:15.368Z,9.70
2019-04-06T00:23:42.795Z,9.70
2019-04-06T00:26:10.364Z,9.43
2019-04-06T00:28:37.935Z,10.10
2019-04-06T00:31:22.718Z,9.87
2019-04-06T00:33:50.420Z,9.27
2019-04-06T00:36:22.545Z,9.20
2019-04-06T00:38:49.896Z,9.40
2019-04-06T00:41:17.567Z,9.10
2019-04-06T00:43:45.134Z,9.20
2019-04-06T00:46:12.577Z,9.90
2019-04-06T00:48:39.966Z,8.67
2019-04-06T00:51:07.513Z,10.00
2019-04-06T00:53:35.256Z,9.33
2019-04-06T00:56:02.702Z,9.40
2019-04-06T00:58:30.156Z,9.63
2019-04-06T01:00:57.606Z,8.97
2019-04-06T01:03:25.059Z,10.30
2019-04-06T01:05:52.618Z,9.57
2019-04-06T01:08:20.180Z,9.37
2019-04-06T01:10:47.712Z,9.93
2019-04-06T01:13:15.245Z,9.57
2019-04-06T01:15:42.654Z,9.73
2019-04-06T01:18:10.106Z,10.13
2019-04-06T01:20:37.661Z,12.50
2019-04-06T01:23:05.107Z,12.77
2019-04-06T01:25:32.679Z,11.90
2019-04-06T01:28:00.228Z,11.70
2019-04-06T01:30:27.659Z,10.67
2019-04-06T01:32:55.254Z,10.30
2019-04-06T01:35:22.606Z,10.17
2019-04-06T01:37:50.020Z,10.20
2019-04-06T01:40:17.606Z,10.97
2019-04-06T01:42:44.894Z,9.83
2019-04-06T01:45:12.326Z,10.90
2019-04-06T01:47:39.726Z,9.70
2019-04-06T01:50:07.249Z,9.73
2019-04-06T01:52:34.598Z,8.97
2019-04-06T01:55:02.092Z,10.33
2019-04-06T01:57:29.848Z,9.97
2019-04-06T01:59:57.305Z,8.97
2019-04-06T02:02:27.961Z,10.60
2019-04-06T02:04:55.366Z,10.47
2019-04-06T02:07:23.034Z,9.00
2019-04-06T02:09:50.802Z,9.77
2019-04-06T02:12:18.211Z,10.43
2019-04-06T02:14:45.718Z,9.70
2019-04-06T02:17:13.152Z,10.13
2019-04-06T02:19:40.606Z,9.50
2019-04-06T02:22:08.119Z,9.40
2019-04-06T02:24:35.561Z,10.03
2019-04-06T02:27:02.874Z,9.63
2019-04-06T02:29:30.657Z,9.10
2019-04-06T02:32:06.731Z,8.97
2019-04-06T02:34:51.822Z,9.50
2019-04-06T02:37:38.474Z,9.00
2019-04-06T02:40:24.114Z,9.70
2019-04-06T02:42:56.285Z,8.90
2019-04-06T02:45:23.757Z,10.33
2019-04-06T02:47:51.237Z,9.00
2019-04-06T02:50:19.129Z,11.10
2019-04-06T02:52:46.696Z,8.20
2019-04-06T02:55:14.303Z,9.10
2019-04-06T02:57:41.732Z,9.50
2019-04-06T03:00:09.636Z,9.83
2019-04-06T03:02:37.308Z,9.70
2019-04-06T03:05:05.063Z,9.27
2019-04-06T03:07:32.420Z,9.40
2019-04-06T03:09:59.877Z,9.97
2019-04-06T03:12:27.457Z,9.23
2019-04-06T03:14:54.813Z,9.60
2019-04-06T03:17:22.265Z,9.40
2019-04-06T03:19:49.669Z,9.73
2019-04-06T03:22:16.977Z,9.60
2019-04-06T03:24:44.507Z,10.07
2019-04-06T03:27:12.113Z,8.90
2019-04-06T03:29:39.626Z,9.53
2019-04-06T03:32:07.202Z,9.00
2019-04-06T03:34:34.577Z,9.87
2019-04-06T03:37:02.012Z,10.53
2019-04-06T03:39:29.388Z,11.43
2019-04-06T03:41:57.050Z,10.17
2019-04-06T03:44:24.457Z,11.17
2019-04-06T03:46:51.885Z,11.30
2019-04-06T03:49:19.357Z,10.83
2019-04-06T03:51:46.771Z,10.57
2019-04-06T03:54:14.322Z,11.37
2019-04-06T03:56:41.731Z,10.10
2019-04-06T03:59:09.163Z,10.97
2019-04-06T04:01:36.608Z,10.17
2019-04-06T04:04:04.051Z,12.33
2019-04-06T04:06:31.361Z,11.27
2019-04-06T04:08:58.771Z,10.97
2019-04-06T04:11:26.168Z,11.83
2019-04-06T04:13:53.612Z,10.37
2019-04-06T04:16:21.001Z,9.70
2019-04-06T04:18:48.421Z,10.40
2019-04-06T04:21:15.992Z,10.10
2019-04-06T04:23:43.438Z,10.63
2019-04-06T04:26:11.233Z,9.70
2019-04-06T04:28:38.972Z,11.33
2019-04-06T04:31:06.442Z,11.93
2019-04-06T04:33:33.973Z,11.77
2019-04-06T04:36:01.423Z,12.60
2019-04-06T04:38:28.690Z,12.37
2019-04-06T04:40:56.166Z,11.33
2019-04-06T04:43:23.697Z,12.63
2019-04-06T04:45:51.074Z,12.20
2019-04-06T04:48:18.538Z,12.60
2019-04-06T04:50:45.781Z,12.23
2019-04-06T04:53:13.254Z,13.53
2019-04-06T04:55:40.741Z,13.33
2019-04-06T04:58:08.168Z,14.13
2019-04-06T05:00:35.592Z,14.10
2019-04-06T05:03:02.956Z,14.40
2019-04-06T05:05:30.322Z,15.00
2019-04-06T05:07:57.786Z,14.00
2019-04-06T05:10:25.124Z,13.60
2019-04-06T05:12:52.483Z,14.60
2019-04-06T05:15:29.474Z,14.00
2019-04-06T05:17:56.736Z,14.03
2019-04-06T05:20:24.194Z,13.47
2019-04-06T05:22:51.478Z,14.17
2019-04-06T05:25:18.852Z,11.57
2019-04-06T05:27:51.820Z,11.63
2019-04-06T05:30:16.032Z,11.23
2019-04-06T05:32:43.585Z,12.33
2019-04-06T05:35:11.161Z,12.87
2019-04-06T05:37:38.981Z,12.30
2019-04-06T05:40:06.576Z,12.00
2019-04-06T05:42:33.823Z,12.70
2019-04-06T05:45:01.232Z,14.10
2019-04-06T05:47:28.634Z,14.03
2019-04-06T05:49:56.250Z,14.73
2019-04-06T05:52:23.840Z,15.47
2019-04-06T05:54:51.308Z,15.90
2019-04-06T05:57:18.734Z,16.03
2019-04-06T05:59:46.041Z,15.93
2019-04-06T06:02:13.500Z,14.63
2019-04-06T06:04:41.170Z,14.27
2019-04-06T06:07:09.068Z,14.97
2019-04-06T06:09:37.498Z,14.83
2019-04-06T06:12:04.919Z,15.43
2019-04-06T06:14:32.172Z,14.63
2019-04-06T06:16:59.529Z,15.77
2019-04-06T06:19:26.929Z,14.57
2019-04-06T06:21:54.217Z,14.57
2019-04-06T06:24:21.643Z,15.23
2019-04-06T06:26:49.175Z,16.20
2019-04-06T06:29:16.866Z,15.00
2019-04-06T06:31:45.864Z,18.67
2019-04-06T06:34:13.315Z,17.63
2019-04-06T06:36:40.750Z,15.30
2019-04-06T06:39:08.656Z,16.07
2019-04-06T06:41:36.129Z,16.17
2019-04-06T06:44:03.936Z,15.27
2019-04-06T06:46:37.850Z,14.80
2019-04-06T06:49:05.250Z,15.67
2019-04-06T06:51:34.051Z,15.17
2019-04-06T06:54:01.645Z,16.27
2019-04-06T06:56:30.009Z,17.00
2019-04-06T06:58:57.384Z,16.80
2019-04-06T07:01:24.817Z,15.83
2019-04-06T07:03:52.218Z,15.57
2019-04-06T07:06:19.649Z,15.63
2019-04-06T07:08:47.014Z,17.17
2019-04-06T07:11:14.493Z,16.43
2019-04-06T07:14:01.898Z,16.00
2019-04-06T07:16:33.483Z,17.60
2019-04-06T07:19:01.968Z,16.03
2019-04-06T07:21:29.446Z,18.47
2019-04-06T07:23:56.908Z,18.03
2019-04-06T07:26:24.179Z,18.70
2019-04-06T07:28:51.693Z,17.27
2019-04-06T07:31:19.058Z,19.83
2019-04-06T07:33:46.515Z,19.27
2019-04-06T07:36:14.222Z,18.93
2019-04-06T07:38:41.828Z,18.87
2019-04-06T07:41:09.395Z,19.03
2019-04-06T07:43:36.898Z,19.83
2019-04-06T07:46:05.531Z,21.07
2019-04-06T07:48:33.215Z,19.53
2019-04-06T07:51:00.709Z,19.17
2019-04-06T07:53:29.143Z,19.33
2019-04-06T07:55:56.541Z,19.93
2019-04-06T07:58:23.995Z,21.00
2019-04-06T08:00:51.531Z,19.83
2019-04-06T08:03:19.105Z,19.27
2019-04-06T08:05:46.718Z,19.07
2019-04-06T08:08:14.122Z,19.03
2019-04-06T08:10:41.679Z,20.33
2019-04-06T08:13:09.109Z,20.27
2019-04-06T08:15:36.553Z,20.40
2019-04-06T08:18:04.566Z,19.00
2019-04-06T08:20:32.049Z,19.93
2019-04-06T08:22:59.548Z,20.17
2019-04-06T08:25:26.967Z,20.33
2019-04-06T08:27:54.528Z,20.13
2019-04-06T08:30:22.318Z,19.67
2019-04-06T08:32:49.792Z,19.00
2019-04-06T08:35:25.214Z,19.37
2019-04-06T08:37:46.452Z,17.97
2019-04-06T08:40:14.306Z,18.73
2019-04-06T08:42:42.000Z,19.43
2019-04-06T08:45:09.784Z,19.17
2019-04-06T08:47:37.285Z,18.97
2019-04-06T08:50:05.415Z,19.10
2019-04-06T08:52:33.051Z,19.07
2019-04-06T08:55:00.556Z,18.97
2019-04-06T08:57:27.834Z,19.37
2019-04-06T08:59:55.105Z,18.33
2019-04-06T09:02:22.618Z,20.70
2019-04-06T09:04:50.009Z,18.03
2019-04-06T09:07:17.262Z,18.97
2019-04-06T09:09:44.650Z,18.00
2019-04-06T09:12:12.372Z,17.50
2019-04-06T09:14:39.782Z,17.50
2019-04-06T09:17:07.373Z,19.07
2019-04-06T09:19:34.907Z,19.33
2019-04-06T09:22:02.525Z,18.03
2019-04-06T09:24:30.106Z,18.07
2019-04-06T09:26:57.530Z,20.60
2019-04-06T09:29:25.096Z,18.97
2019-04-06T09:31:52.683Z,20.23
2019-04-06T09:34:20.468Z,20.23
2019-04-06T09:36:47.896Z,20.23
2019-04-06T09:39:15.262Z,19.97
2019-04-06T09:41:42.680Z,20.83
2019-04-06T09:44:17.342Z,19.43
2019-04-06T09:47:04.314Z,20.93
2019-04-06T09:50:03.380Z,19.90
2019-04-06T09:52:48.500Z,20.00
2019-04-06T09:55:24.370Z,18.70
2019-04-06T09:58:26.444Z,20.03
2019-04-06T10:01:15.984Z,19.27
2019-04-06T10:03:51.863Z,19.23
2019-04-06T10:06:37.562Z,20.43
2019-04-06T10:09:24.851Z,21.33
2019-04-06T10:12:17.826Z,20.10
2019-04-06T10:15:05.122Z,20.60
2019-04-06T10:18:01.340Z,20.73
2019-04-06T10:20:51.073Z,21.43
2019-04-06T10:23:38.123Z,21.20
2019-04-06T10:26:23.326Z,23.27
2019-04-06T10:29:08.445Z,22.97
2019-04-06T10:32:01.059Z,21.97
2019-04-06T10:34:38.766Z,21.97
2019-04-06T10:37:25.743Z,22.93
2019-04-06T10:40:13.154Z,22.37
2019-04-06T10:43:02.123Z,23.23
2019-04-06T10:45:49.281Z,22.13
2019-04-06T10:48:30.856Z,20.27
2019-04-06T10:51:11.994Z,20.53
2019-04-06T10:53:46.757Z,20.50
2019-04-06T10:56:25.601Z,19.97
2019-04-06T10:59:10.953Z,19.17
2019-04-06T11:02:12.621Z,20.70
2019-04-06T11:04:50.508Z,18.87
2019-04-06T11:07:44.326Z,19.83
2019-04-06T11:10:32.687Z,19.33
2019-04-06T11:13:35.192Z,17.43
2019-04-06T11:16:21.716Z,18.20
2019-04-06T11:19:07.962Z,17.50
2019-04-06T11:21:53.084Z,19.30
2019-04-06T11:24:37.082Z,18.53
2019-04-06T11:27:36.578Z,18.70
2019-04-06T11:30:31.969Z,19.60
2019-04-06T11:33:12.190Z,17.87
2019-04-06T11:35:59.686Z,18.30
2019-04-06T11:38:49.731Z,18.33
2019-04-06T11:41:25.088Z,17.87
2019-04-06T11:44:12.029Z,17.23
2019-04-06T11:46:55.433Z,17.50
2019-04-06T11:49:40.872Z,17.57
2019-04-06T11:52:32.092Z,17.40
2019-04-06T11:55:17.314Z,16.83
2019-04-06T11:58:07.524Z,16.97
2019-04-06T12:01:12.932Z,17.53
2019-04-06T12:04:00.687Z,16.90
2019-04-06T12:06:53.735Z,16.07
2019-04-06T12:09:44.944Z,16.40
2019-04-06T12:12:43.402Z,15.53
2019-04-06T12:15:30.665Z,16.80
2019-04-06T12:18:19.476Z,15.00
2019-04-06T12:21:03.101Z,14.47
2019-04-06T12:23:53.182Z,15.10
2019-04-06T12:26:42.826Z,15.60
2019-04-06T12:29:29.822Z,14.47
2019-04-06T12:32:23.912Z,13.73
2019-04-06T12:35:18.250Z,14.07
2019-04-06T12:38:05.272Z,12.93
2019-04-06T12:40:51.570Z,12.83
2019-04-06T12:43:40.769Z,11.80
2019-04-06T12:46:25.795Z,12.37
2019-04-06T12:49:02.759Z,12.40
2019-04-06T12:52:01.834Z,11.93
2019-04-06T12:54:39.777Z,12.13
2019-04-06T12:57:29.526Z,11.93
2019-04-06T13:00:25.144Z,11.03
2019-04-06T13:03:10.207Z,13.33
2019-04-06T13:05:49.427Z,12.87
2019-04-06T13:08:37.624Z,12.70
2019-04-06T13:11:15.195Z,12.63
2019-04-06T13:13:51.823Z,12.67
2019-04-06T13:16:51.912Z,12.40
2019-04-06T13:19:36.676Z,11.43
2019-04-06T13:22:26.368Z,12.90
2019-04-06T13:25:06.805Z,12.10
2019-04-06T13:27:53.118Z,12.50
2019-04-06T13:31:02.147Z,12.37
2019-04-06T13:33:43.762Z,12.20
2019-04-06T13:36:26.228Z,12.53
2019-04-06T13:39:11.051Z,12.27
2019-04-06T13:41:54.782Z,12.87
2019-04-06T13:44:32.601Z,13.97
2019-04-06T13:47:14.894Z,13.37
2019-04-06T13:50:07.602Z,14.00
2019-04-06T13:52:52.898Z,14.53
2019-04-06T13:55:38.043Z,12.87
2019-04-06T13:58:10.614Z,12.90
2019-04-06T14:00:48.124Z,13.50
2019-04-06T14:03:35.136Z,12.50
2019-04-06T14:06:14.705Z,13.73
2019-04-06T14:08:57.752Z,13.70
2019-04-06T14:11:32.956Z,13.60
2019-04-06T14:14:29.145Z,13.57
2019-04-06T14:17:10.803Z,12.60
2019-04-06T14:19:55.809Z,13.30
2019-04-06T14:22:48.199Z,12.80
2019-04-06T14:25:25.907Z,13.27
2019-04-06T14:28:09.887Z,13.70
2019-04-06T14:31:05.460Z,13.13
2019-04-06T14:33:55.588Z,12.80
2019-04-06T14:36:35.280Z,13.77
2019-04-06T14:39:33.139Z,12.53
2019-04-06T14:42:12.750Z,13.60
2019-04-06T14:45:01.398Z,12.90
2019-04-06T14:47:36.574Z,12.43
2019-04-06T14:50:29.512Z,13.63
2019-04-06T14:53:20.516Z,11.90
2019-04-06T14:56:05.898Z,12.33
2019-04-06T14:58:51.510Z,12.27
2019-04-06T15:01:40.466Z,13.10
2019-04-06T15:04:13.548Z,12.60
2019-04-06T15:07:12.883Z,11.80
2019-04-06T15:10:00.837Z,12.00
2019-04-06T15:12:47.184Z,12.43
2019-04-06T15:15:34.184Z,12.13
2019-04-06T15:18:36.255Z,12.93
2019-04-06T15:21:18.901Z,11.80
2019-04-06T15:24:10.758Z,12.27
2019-04-06T15:26:57.720Z,11.93
2019-04-06T15:29:47.674Z,13.13
2019-04-06T15:32:50.232Z,12.17
2019-04-06T15:35:36.228Z,12.80
2019-04-06T15:38:15.548Z,14.67
2019-04-06T15:41:01.252Z,15.13
2019-04-06T15:43:46.748Z,12.77
2019-04-06T15:46:36.965Z,13.83
2019-04-06T15:49:25.182Z,13.63
2019-04-06T15:52:24.042Z,13.43
2019-04-06T15:55:13.760Z,13.23
2019-04-06T15:57:48.161Z,13.60
2019-04-06T16:00:33.890Z,12.83
2019-04-06T16:03:20.879Z,13.53
2019-04-06T16:06:07.821Z,11.77
2019-04-06T16:09:03.915Z,12.43
2019-04-06T16:11:49.469Z,13.07
2019-04-06T16:14:33.191Z,12.50
2019-04-06T16:17:20.236Z,11.80
2019-04-06T16:20:03.784Z,12.43
2019-04-06T16:22:49.163Z,11.90
2019-04-06T16:25:23.520Z,11.47
2019-04-06T16:28:16.348Z,12.50
2019-04-06T16:30:55.346Z,11.60
2019-04-06T16:33:41.378Z,12.00
2019-04-06T16:36:28.470Z,11.23
2019-04-06T16:39:22.221Z,11.90
2019-04-06T16:42:09.251Z,11.90
2019-04-06T16:45:02.069Z,12.60
2019-04-06T16:47:47.903Z,11.57
2019-04-06T16:50:49.768Z,11.67
2019-04-06T16:53:33.744Z,18.50
2019-04-06T16:56:12.584Z,12.83
2019-04-06T16:58:54.477Z,12.07
2019-04-06T17:01:30.157Z,10.63
2019-04-06T17:04:18.761Z,10.83
2019-04-06T17:07:06.233Z,10.87
2019-04-06T17:10:02.140Z,10.57
2019-04-06T17:12:36.766Z,11.37
2019-04-06T17:15:29.749Z,11.30
2019-04-06T17:18:14.828Z,11.23
2019-04-06T17:21:07.128Z,11.87
2019-04-06T17:23:40.024Z,12.37
2019-04-06T17:26:15.521Z,11.73
2019-04-06T17:29:15.047Z,11.80
2019-04-06T17:31:54.246Z,10.53
2019-04-06T17:34:53.831Z,10.93
2019-04-06T17:37:35.763Z,11.73
2019-04-06T17:40:26.797Z,12.83
2019-04-06T17:43:12.072Z,11.37
2019-04-06T17:46:14.040Z,12.80
2019-04-06T17:49:03.789Z,12.33
2019-04-06T17:51:55.424Z,13.90
2019-04-06T17:55:04.876Z,16.00
2019-04-06T18:00:59.433Z,17.60
2019-04-06T18:03:50.627Z,17.60
2019-04-06T18:06:37.558Z,16.07
2019-04-06T18:09:25.935Z,17.17
2019-04-06T18:12:11.620Z,14.73
2019-04-06T18:14:39.429Z,12.97
2019-04-06T18:17:07.627Z,12.57
2019-04-06T18:19:35.057Z,13.93
2019-04-06T18:22:02.905Z,13.53
2019-04-06T18:24:30.644Z,13.43
2019-04-06T18:26:59.074Z,12.80
2019-04-06T18:29:27.296Z,13.73
2019-04-06T18:32:04.800Z,13.60
2019-04-06T18:34:32.221Z,12.67
2019-04-06T18:37:37.054Z,14.30
2019-04-06T18:40:24.823Z,12.63
2019-04-06T18:42:52.216Z,13.97
2019-04-06T18:45:19.455Z,13.80
2019-04-06T18:47:46.817Z,13.80
2019-04-06T18:50:14.772Z,13.03
2019-04-06T18:52:42.142Z,13.97
2019-04-06T18:55:09.919Z,13.53
2019-04-06T18:57:37.269Z,13.97
2019-04-06T19:00:07.543Z,12.33
2019-04-06T19:02:36.413Z,12.80
2019-04-06T19:05:04.576Z,13.53
2019-04-06T19:07:31.955Z,13.50
2019-04-06T19:09:59.565Z,11.43
2019-04-06T19:12:26.913Z,12.27
2019-04-06T19:14:54.264Z,12.07
2019-04-06T19:17:21.509Z,12.60
2019-04-06T19:19:48.891Z,12.47
2019-04-06T19:22:16.167Z,11.93
2019-04-06T19:24:44.394Z,13.97
2019-04-06T19:27:11.894Z,15.50
2019-04-06T19:29:39.522Z,13.07
2019-04-06T19:32:06.871Z,12.87
2019-04-06T19:34:34.224Z,12.30
2019-04-06T19:37:01.779Z,13.30
2019-04-06T19:39:29.121Z,13.17
2019-04-06T19:41:56.609Z,12.47
2019-04-06T19:44:23.812Z,12.97
2019-04-06T19:46:51.336Z,13.20
2019-04-06T19:49:18.739Z,13.90
2019-04-06T19:51:45.856Z,14.07
2019-04-06T19:54:14.053Z,14.43
2019-04-06T19:56:41.530Z,15.07
2019-04-06T19:59:08.934Z,14.57
2019-04-06T20:01:36.400Z,14.27
2019-04-06T20:04:03.934Z,14.17
2019-04-06T20:06:31.763Z,14.43
2019-04-06T20:08:58.784Z,13.10
2019-04-06T20:11:27.291Z,14.07
2019-04-06T20:13:54.974Z,14.77
2019-04-06T20:16:22.891Z,14.87
2019-04-06T20:18:50.088Z,12.80
2019-04-06T20:21:17.579Z,13.97
2019-04-06T20:23:44.928Z,17.93
2019-04-06T20:26:12.795Z,16.60
2019-04-06T20:28:40.067Z,14.87
2019-04-06T20:31:07.382Z,15.03
2019-04-06T20:33:46.398Z,12.93
2019-04-06T20:36:03.997Z,13.60
2019-04-06T20:38:31.276Z,13.27
2019-04-06T20:40:58.629Z,12.57
2019-04-06T20:43:26.344Z,12.97
2019-04-06T20:45:54.349Z,12.63
2019-04-06T20:48:21.617Z,14.97
2019-04-06T20:50:49.080Z,15.27
2019-04-06T20:53:16.661Z,14.20
2019-04-06T20:55:44.022Z,13.83
2019-04-06T20:58:12.127Z,14.37
2019-04-06T21:00:39.420Z,15.27
2019-04-06T21:03:06.688Z,13.80
2019-04-06T21:05:33.892Z,15.27
2019-04-06T21:08:01.398Z,14.77
2019-04-06T21:10:28.624Z,13.50
2019-04-06T21:12:55.989Z,16.33
2019-04-06T21:15:23.790Z,20.17
2019-04-06T21:17:51.647Z,13.30
2019-04-06T21:20:19.086Z,13.93
2019-04-06T21:22:46.339Z,12.73
2019-04-06T21:25:13.668Z,14.10
2019-04-06T21:27:43.185Z,15.00
2019-04-06T21:30:10.786Z,14.03
2019-04-06T21:32:38.350Z,16.10
2019-04-06T21:35:05.707Z,14.00
2019-04-06T21:37:33.469Z,14.57
2019-04-06T21:40:01.069Z,14.47
2019-04-06T21:42:28.642Z,13.83
2019-04-06T21:44:55.956Z,12.90
2019-04-06T21:47:23.194Z,13.57
2019-04-06T21:49:50.426Z,14.60
2019-04-06T21:52:18.079Z,12.57
2019-04-06T21:54:45.578Z,12.70
2019-04-06T21:57:13.177Z,14.10
2019-04-06T21:59:40.532Z,14.57
2019-04-06T22:02:08.064Z,14.10
2019-04-06T22:04:35.504Z,15.27
2019-04-06T22:07:03.167Z,13.60
2019-04-06T22:09:30.513Z,33.60
2019-04-06T22:11:58.392Z,24.50
2019-04-06T22:14:26.235Z,24.70
2019-04-06T22:16:53.632Z,22.43
2019-04-06T22:19:21.411Z,18.50
2019-04-06T22:21:49.397Z,18.80
2019-04-06T22:24:17.112Z,20.93
2019-04-06T22:26:44.523Z,21.30
2019-04-06T22:29:11.926Z,19.40
2019-04-06T22:31:40.585Z,16.50
2019-04-06T22:34:08.091Z,17.10
2019-04-06T22:36:35.615Z,17.47
2019-04-06T22:39:05.433Z,15.20
2019-04-06T22:41:32.921Z,15.10
2019-04-06T22:44:00.716Z,16.00
2019-04-06T22:46:28.462Z,15.87
2019-04-06T22:48:56.229Z,16.57
2019-04-06T22:51:24.638Z,16.63
2019-04-06T22:53:52.108Z,16.23
2019-04-06T22:56:19.372Z,18.87
2019-04-06T22:58:46.632Z,16.80
2019-04-06T23:01:15.173Z,15.07
2019-04-06T23:04:02.034Z,16.40
2019-04-06T23:06:34.630Z,16.93
2019-04-06T23:09:01.830Z,15.83
2019-04-06T23:11:29.133Z,15.23
2019-04-06T23:13:56.517Z,15.10
2019-04-06T23:16:23.842Z,15.63
2019-04-06T23:18:51.176Z,15.57
2019-04-06T23:21:18.392Z,16.00
2019-04-06T23:23:46.456Z,15.93
2019-04-06T23:26:13.818Z,14.53
2019-04-06T23:28:41.068Z,15.37
2019-04-06T23:31:08.315Z,15.40
2019-04-06T23:33:35.704Z,14.53
2019-04-06T23:36:03.369Z,16.40
2019-04-06T23:38:30.854Z,17.73
2019-04-06T23:40:58.061Z,16.43
2019-04-06T23:43:25.579Z,15.23
2019-04-06T23:45:52.914Z,14.53
2019-04-06T23:48:20.513Z,14.07
2019-04-06T23:50:48.357Z,15.73
2019-04-06T23:53:16.027Z,14.40
2019-04-06T23:55:43.426Z,15.30
2019-04-06T23:58:10.890Z,15.13
